Time;durP1;ratioP1;P1;durP2;ratioP2;P2;SDS_P1;SDS_P2;PMS_P1;PMS_P2;Temp;Humidity;BMP_temperature;BMP_pressure;BME280_temperature;BME280_humidity;BME280_pressure;Samples;Min_cycle;Max_cycle;Signal;HPM_P1;HPM_P2
2021/07/31 00:01:40;;;;;;;6.85;5.95;;;24.50;75.90;;;;;;5111655;28;20050;-82
2021/07/31 00:04:06;;;;;;;5.82;5.18;;;24.50;75.70;;;;;;5094986;28;20130;-80
2021/07/31 00:06:32;;;;;;;8.15;6.20;;;24.50;75.70;;;;;;5113145;28;20024;-80
2021/07/31 00:08:58;;;;;;;6.30;5.70;;;24.50;75.70;;;;;;5113162;28;20051;-80
2021/07/31 00:11:25;;;;;;;7.07;5.50;;;24.40;75.60;;;;;;5113375;28;20036;-81
2021/07/31 00:13:51;;;;;;;6.10;5.50;;;24.40;75.80;;;;;;5113408;28;20097;-80
2021/07/31 00:16:17;;;;;;;8.90;6.18;;;24.40;76.00;;;;;;5095353;28;20043;-79
2021/07/31 00:18:43;;;;;;;7.10;5.75;;;24.30;76.10;;;;;;5113212;28;20039;-81
2021/07/31 00:21:09;;;;;;;8.35;6.40;;;24.30;76.20;;;;;;5112985;28;20028;-82
2021/07/31 00:23:36;;;;;;;6.82;6.15;;;24.20;76.30;;;;;;5094747;28;20554;-83
2021/07/31 00:26:02;;;;;;;8.23;5.95;;;24.20;76.50;;;;;;5112883;28;20403;-80
2021/07/31 00:28:31;;;;;;;7.47;6.05;;;24.10;76.50;;;;;;5094981;28;20067;-84
2021/07/31 00:30:59;;;;;;;7.25;5.72;;;24.10;76.50;;;;;;5116448;28;20539;-81
2021/07/31 00:33:25;;;;;;;6.90;5.72;;;24.10;76.70;;;;;;5117060;28;20082;-79
2021/07/31 00:35:51;;;;;;;6.75;6.15;;;24.00;76.50;;;;;;5116949;28;20032;-79
2021/07/31 00:38:17;;;;;;;7.15;6.05;;;24.10;76.50;;;;;;5116984;28;20035;-79
2021/07/31 00:40:46;;;;;;;6.82;5.28;;;24.00;76.10;;;;;;5098794;28;20036;-79
2021/07/31 00:43:12;;;;;;;8.73;6.18;;;24.00;76.30;;;;;;5116985;28;20108;-79
2021/07/31 00:45:37;;;;;;;5.90;5.40;;;24.00;76.20;;;;;;5115246;28;20046;-76
2021/07/31 00:48:05;;;;;;;6.88;6.18;;;24.00;76.10;;;;;;5116745;28;20088;-77
2021/07/31 00:50:33;;;;;;;7.50;5.30;;;24.00;76.10;;;;;;5117024;28;20035;-77
2021/07/31 00:53:00;;;;;;;7.32;5.82;;;24.00;76.20;;;;;;5116336;28;20036;-77
2021/07/31 00:55:29;;;;;;;7.22;5.85;;;24.00;76.20;;;;;;5096423;28;20035;-78
2021/07/31 00:57:57;;;;;;;7.88;5.78;;;23.90;76.20;;;;;;5114303;28;20527;-78
2021/07/31 01:00:34;;;;;;;7.97;5.22;;;23.90;76.10;;;;;;5098043;28;20035;-78
2021/07/31 01:03:01;;;;;;;7.32;6.25;;;23.80;76.40;;;;;;5096081;28;20059;-78
2021/07/31 01:05:27;;;;;;;8.23;6.10;;;23.80;76.60;;;;;;5115795;28;20135;-78
2021/07/31 01:07:53;;;;;;;10.38;6.05;;;23.70;76.80;;;;;;5116053;28;20035;-78
2021/07/31 01:10:20;;;;;;;8.40;6.15;;;23.60;77.00;;;;;;5097525;28;20043;-78
2021/07/31 01:12:48;;;;;;;8.77;6.40;;;23.60;77.50;;;;;;5097788;28;20042;-79
2021/07/31 01:15:15;;;;;;;14.52;6.72;;;23.60;77.80;;;;;;5115926;28;20399;-79
2021/07/31 01:17:41;;;;;;;10.35;6.22;;;23.60;77.90;;;;;;5097692;28;20039;-78
2021/07/31 01:20:09;;;;;;;8.77;5.88;;;23.60;77.90;;;;;;5097537;28;20143;-82
2021/07/31 01:22:35;;;;;;;6.90;5.85;;;23.60;77.80;;;;;;5114827;28;20456;-82
2021/07/31 01:25:08;;;;;;;11.20;6.45;;;23.60;77.40;;;;;;5114735;28;20067;-80
2021/07/31 01:27:36;;;;;;;7.88;6.28;;;23.70;77.50;;;;;;5114616;28;20088;-78
2021/07/31 01:30:02;;;;;;;7.53;6.25;;;23.70;77.60;;;;;;5115596;28;20039;-77
2021/07/31 01:32:28;;;;;;;7.20;5.78;;;23.70;77.40;;;;;;5115888;28;20040;-79
2021/07/31 01:34:53;;;;;;;10.05;6.53;;;23.60;77.40;;;;;;5115540;28;20062;-84
2021/07/31 01:37:20;;;;;;;10.73;5.88;;;23.60;77.30;;;;;;5115670;28;20066;-83
2021/07/31 01:39:48;;;;;;;8.95;6.78;;;23.60;77.60;;;;;;5115154;28;20032;-84
2021/07/31 01:42:14;;;;;;;9.23;7.60;;;23.60;77.50;;;;;;5114265;28;20043;-81
2021/07/31 01:44:40;;;;;;;8.63;6.47;;;23.50;77.30;;;;;;5115080;28;20051;-80
2021/07/31 01:47:07;;;;;;;7.53;6.05;;;23.50;77.50;;;;;;5113977;28;20118;-86
2021/07/31 01:49:33;;;;;;;10.65;7.03;;;23.50;77.70;;;;;;5113867;28;20031;-87
2021/07/31 01:52:07;;;;;;;12.45;6.90;;;23.50;77.80;;;;;;5115344;28;20047;-86
2021/07/31 01:54:33;;;;;;;8.30;6.93;;;23.50;77.70;;;;;;5113906;28;20066;-84
2021/07/31 01:56:59;;;;;;;10.50;7.38;;;23.50;77.60;;;;;;5114025;28;20070;-81
2021/07/31 01:59:45;;;;;;;12.25;7.60;;;23.50;77.60;;;;;;5114753;28;20051;-88
2021/07/31 02:02:12;;;;;;;11.20;7.50;;;23.40;77.50;;;;;;5114823;28;20063;-86
2021/07/31 02:04:44;;;;;;;11.48;7.50;;;23.40;77.70;;;;;;5113749;28;20043;-88
2021/07/31 02:07:24;;;;;;;12.57;7.40;;;23.40;77.80;;;;;;5115109;28;20043;-88
2021/07/31 02:09:51;;;;;;;16.70;7.35;;;23.50;77.70;;;;;;5115063;28;20032;-89
2021/07/31 02:12:17;;;;;;;10.13;7.00;;;23.50;77.50;;;;;;5115324;28;20488;-87
2021/07/31 02:14:45;;;;;;;9.77;7.05;;;23.50;77.40;;;;;;5115802;28;20034;-84
2021/07/31 02:17:13;;;;;;;16.33;6.80;;;23.40;77.20;;;;;;5114369;28;20510;-79
2021/07/31 02:19:44;;;;;;;11.20;6.22;;;23.40;77.20;;;;;;5113782;28;20027;-83
2021/07/31 02:22:18;;;;;;;8.13;6.57;;;23.50;77.20;;;;;;5081104;28;20127;-83
2021/07/31 02:25:19;;;;;;;9.85;6.50;;;23.50;77.20;;;;;;5071636;28;20044;-83
2021/07/31 02:28:04;;;;;;;7.38;5.57;;;23.60;77.00;;;;;;5100420;28;20600;-86
2021/07/31 02:30:30;;;;;;;7.57;5.85;;;23.80;76.80;;;;;;5114872;28;20040;-81
2021/07/31 02:32:58;;;;;;;9.32;6.07;;;23.90;76.30;;;;;;5096999;28;20032;-85
2021/07/31 02:35:26;;;;;;;6.28;5.68;;;24.00;75.90;;;;;;5096848;28;20036;-84
2021/07/31 02:38:10;;;;;;;;;;;24.10;75.70;;;;;;5115931;28;20092;-84
2021/07/31 02:40:36;;;;;;;9.38;6.20;;;24.30;75.80;;;;;;5097344;28;19911;-83
2021/07/31 02:43:02;;;;;;;8.95;5.20;;;24.40;75.30;;;;;;5102651;28;20063;-84
2021/07/31 02:45:28;;;;;;;6.53;5.93;;;24.50;75.30;;;;;;5092535;28;20040;-84
2021/07/31 02:48:02;;;;;;;5.82;5.07;;;24.60;75.00;;;;;;5092746;28;20032;-81
2021/07/31 02:50:29;;;;;;;6.20;5.25;;;24.70;74.80;;;;;;5109978;28;20408;-84
2021/07/31 02:53:08;;;;;;;10.50;5.93;;;24.80;74.60;;;;;;5096489;28;20399;-85
2021/07/31 02:55:34;;;;;;;7.80;5.40;;;24.90;74.10;;;;;;5095856;28;20031;-81
2021/07/31 02:58:01;;;;;;;9.85;5.75;;;25.00;73.80;;;;;;5095935;28;20036;-83
2021/07/31 03:00:27;;;;;;;8.52;5.43;;;25.00;73.40;;;;;;5112615;28;20027;-82
2021/07/31 03:02:53;;;;;;;11.18;5.30;;;24.90;73.20;;;;;;5095595;28;20056;-82
2021/07/31 03:05:19;;;;;;;7.20;5.57;;;24.80;73.60;;;;;;5113824;28;20043;-83
2021/07/31 03:07:58;;;;;;;10.77;5.82;;;24.80;73.70;;;;;;5080942;28;20027;-83
2021/07/31 03:10:25;;;;;;;8.63;5.93;;;24.70;73.90;;;;;;5112501;28;20042;-83
2021/07/31 03:12:51;;;;;;;8.60;5.40;;;24.60;74.10;;;;;;5095418;28;20035;-85
2021/07/31 03:15:17;;;;;;;10.93;5.65;;;24.60;74.60;;;;;;5095277;28;20042;-84
2021/07/31 03:17:44;;;;;;;5.82;5.22;;;24.50;74.40;;;;;;5112113;28;20484;-84
2021/07/31 03:20:11;;;;;;;9.63;5.13;;;24.50;74.40;;;;;;5113443;28;20046;-83
2021/07/31 03:22:40;;;;;;;8.52;5.35;;;24.50;74.50;;;;;;5079220;28;20028;-82
2021/07/31 03:25:07;;;;;;;9.10;5.72;;;24.50;74.30;;;;;;5095300;28;20493;-83
2021/07/31 03:27:34;;;;;;;14.15;5.72;;;24.50;74.40;;;;;;5095473;28;20039;-84
2021/07/31 03:30:15;;;;;;;11.15;5.43;;;24.40;74.60;;;;;;5097256;28;20103;-84
2021/07/31 03:32:55;;;;;;;6.68;5.45;;;24.40;74.40;;;;;;5095582;28;20035;-84
2021/07/31 03:35:21;;;;;;;13.90;9.25;;;24.40;74.40;;;;;;5113421;28;20131;-84
2021/07/31 03:38:19;;;;;;;11.73;8.10;;;24.40;74.30;;;;;;5068142;28;20047;-84
2021/07/31 03:40:47;;;;;;;12.77;8.80;;;24.40;74.10;;;;;;5111775;28;20032;-84
2021/07/31 03:43:15;;;;;;;11.88;7.38;;;24.40;74.10;;;;;;5111883;28;20130;-83
2021/07/31 03:45:41;;;;;;;7.45;6.40;;;24.40;74.00;;;;;;5113218;28;20071;-84
2021/07/31 03:48:07;;;;;;;9.55;5.82;;;24.40;73.90;;;;;;5095484;28;20487;-84
2021/07/31 03:50:39;;;;;;;8.38;6.18;;;24.40;73.60;;;;;;5113370;28;20067;-83
2021/07/31 03:53:08;;;;;;;8.68;6.25;;;24.30;73.60;;;;;;5112278;28;20023;-83
2021/07/31 03:55:37;;;;;;;6.63;5.63;;;24.30;73.20;;;;;;5095229;28;20456;-83
2021/07/31 03:58:05;;;;;;;8.93;5.50;;;24.30;73.00;;;;;;5113291;28;20035;-83
2021/07/31 04:00:32;;;;;;;8.98;5.13;;;24.50;72.80;;;;;;5095310;28;20036;-84
2021/07/31 04:03:03;;;;;;;7.57;5.20;;;24.70;72.50;;;;;;5094752;28;20055;-84
2021/07/31 04:05:29;;;;;;;9.27;5.18;;;24.80;71.90;;;;;;5114915;28;20043;-87
2021/07/31 04:08:13;;;;;;;9.48;4.68;;;25.10;71.60;;;;;;5117435;28;20082;-83
2021/07/31 04:11:04;;;;;;;6.22;4.70;;;25.30;71.00;;;;;;5095366;28;20503;-84
2021/07/31 04:13:48;;;;;;;8.93;4.50;;;25.60;70.90;;;;;;5117992;28;20066;-83
2021/07/31 04:16:18;;;;;;;7.20;4.65;;;25.90;70.60;;;;;;5115580;28;20395;-84
2021/07/31 04:18:44;;;;;;;7.88;5.18;;;26.00;69.30;;;;;;5116906;28;20088;-84
2021/07/31 04:21:11;;;;;;;5.60;4.00;;;26.20;69.50;;;;;;5116803;28;20037;-84
2021/07/31 04:23:38;;;;;;;5.70;4.50;;;26.30;69.50;;;;;;5115502;28;20028;-85
2021/07/31 04:26:10;;;;;;;5.28;4.40;;;26.50;68.60;;;;;;5098599;28;20039;-85
2021/07/31 04:28:36;;;;;;;4.65;4.15;;;26.70;69.00;;;;;;5116956;28;20039;-85
2021/07/31 04:31:12;;;;;;;5.10;4.30;;;26.90;67.80;;;;;;5098372;28;20114;-85
2021/07/31 04:33:39;;;;;;;6.55;4.00;;;27.00;68.80;;;;;;5116813;28;20046;-86
2021/07/31 04:36:06;;;;;;;5.25;4.05;;;27.10;68.20;;;;;;5116737;28;20073;-86
2021/07/31 04:38:32;;;;;;;4.97;4.13;;;27.30;67.90;;;;;;5081332;28;20059;-86
2021/07/31 04:40:58;;;;;;;7.82;4.60;;;27.50;68.00;;;;;;5098600;28;20040;-86
2021/07/31 04:43:24;;;;;;;5.63;4.03;;;27.60;66.70;;;;;;5116555;28;20092;-86
2021/07/31 04:45:50;;;;;;;6.70;4.13;;;27.70;65.70;;;;;;5098250;28;20044;-86
2021/07/31 04:48:16;;;;;;;6.78;4.05;;;27.80;65.30;;;;;;5116833;28;20515;-86
2021/07/31 04:50:42;;;;;;;5.80;4.53;;;27.90;64.30;;;;;;5116731;28;20092;-86
2021/07/31 04:53:08;;;;;;;6.10;3.97;;;28.00;64.70;;;;;;5116516;28;20043;-85
2021/07/31 04:55:34;;;;;;;9.38;3.72;;;28.20;64.40;;;;;;5097975;28;20027;-85
2021/07/31 04:58:00;;;;;;;4.50;3.88;;;28.30;63.40;;;;;;5116574;28;20031;-85
2021/07/31 05:00:26;;;;;;;4.78;3.78;;;28.40;64.10;;;;;;5116373;28;20046;-85
2021/07/31 05:02:52;;;;;;;4.53;4.07;;;28.50;64.20;;;;;;5116216;28;20047;-85
2021/07/31 05:05:18;;;;;;;4.57;3.88;;;28.60;63.50;;;;;;5080686;28;20051;-83
2021/07/31 05:07:44;;;;;;;7.57;4.10;;;28.70;63.20;;;;;;5116584;28;20062;-82
2021/07/31 05:10:13;;;;;;;4.50;4.00;;;28.80;63.30;;;;;;5114831;28;20058;-83
2021/07/31 05:12:39;;;;;;;5.93;3.90;;;28.90;62.20;;;;;;5115930;28;20039;-82
2021/07/31 05:15:06;;;;;;;5.32;4.18;;;29.00;61.60;;;;;;5097567;28;20463;-82
2021/07/31 05:17:32;;;;;;;5.47;3.58;;;29.20;62.10;;;;;;5096387;28;20476;-82
2021/07/31 05:19:58;;;;;;;6.32;3.85;;;29.30;61.70;;;;;;5115533;28;20035;-83
2021/07/31 05:22:24;;;;;;;5.63;3.33;;;29.30;62.00;;;;;;5080659;28;20440;-84
2021/07/31 05:24:53;;;;;;;4.75;3.70;;;29.40;61.90;;;;;;5097598;28;20044;-84
2021/07/31 05:27:20;;;;;;;4.72;3.78;;;29.50;61.60;;;;;;5116323;28;20031;-83
2021/07/31 05:29:46;;;;;;;6.35;3.97;;;29.60;60.90;;;;;;5097608;28;20134;-83
2021/07/31 05:32:12;;;;;;;4.22;3.83;;;29.60;60.90;;;;;;5115624;28;20088;-83
2021/07/31 05:34:38;;;;;;;5.00;4.10;;;29.70;60.80;;;;;;5115327;28;20039;-83
2021/07/31 05:37:04;;;;;;;4.68;3.50;;;29.80;60.30;;;;;;5115689;28;20070;-82
2021/07/31 05:39:33;;;;;;;5.57;3.90;;;29.90;60.20;;;;;;5115292;28;20074;-82
2021/07/31 05:42:03;;;;;;;5.45;4.20;;;29.90;59.90;;;;;;5097215;28;20031;-82
2021/07/31 05:44:29;;;;;;;5.38;3.38;;;29.90;59.20;;;;;;5114329;28;20488;-82
2021/07/31 05:46:58;;;;;;;7.20;4.20;;;30.00;59.10;;;;;;5115579;28;20047;-83
2021/07/31 05:49:31;;;;;;;5.65;3.92;;;30.10;58.60;;;;;;5115122;28;20043;-83
2021/07/31 05:51:57;;;;;;;4.07;3.45;;;30.20;58.70;;;;;;5096845;28;20040;-85
2021/07/31 05:54:23;;;;;;;6.72;4.00;;;30.20;56.60;;;;;;5114692;28;20123;-84
2021/07/31 05:56:52;;;;;;;8.18;3.67;;;30.30;56.00;;;;;;5113554;28;20122;-83
2021/07/31 05:59:17;;;;;;;5.53;3.28;;;30.30;56.70;;;;;;5113753;28;20027;-84
2021/07/31 06:01:43;;;;;;;4.50;4.10;;;30.30;56.00;;;;;;5114344;28;20391;-84
2021/07/31 06:04:09;;;;;;;5.50;3.67;;;30.40;57.00;;;;;;5114833;28;20043;-84
2021/07/31 06:06:35;;;;;;;6.68;3.45;;;30.40;57.20;;;;;;5115003;28;20040;-84
2021/07/31 06:09:01;;;;;;;4.88;3.45;;;30.50;56.90;;;;;;5114623;28;20114;-84
2021/07/31 06:11:27;;;;;;;4.75;3.60;;;30.50;57.10;;;;;;5113380;28;20042;-83
2021/07/31 06:13:53;;;;;;;6.03;3.47;;;30.60;56.80;;;;;;5114429;28;20039;-84
2021/07/31 06:16:19;;;;;;;4.03;3.30;;;30.60;56.20;;;;;;5096295;28;20027;-84
2021/07/31 06:18:45;;;;;;;4.97;3.80;;;30.70;56.50;;;;;;5113372;28;20031;-84
2021/07/31 06:21:16;;;;;;;4.72;3.95;;;30.80;56.70;;;;;;5096476;28;20043;-84
2021/07/31 06:23:42;;;;;;;4.10;3.70;;;30.80;55.30;;;;;;5096246;28;20493;-84
2021/07/31 06:26:09;;;;;;;4.25;3.50;;;30.90;55.80;;;;;;5096158;28;20122;-84
2021/07/31 06:28:35;;;;;;;6.72;3.53;;;30.90;55.20;;;;;;5113931;28;20474;-84
2021/07/31 06:31:02;;;;;;;5.30;3.58;;;30.90;53.80;;;;;;5114348;28;20097;-84
2021/07/31 06:33:28;;;;;;;5.30;3.50;;;30.90;53.60;;;;;;5114290;28;20442;-86
2021/07/31 06:35:54;;;;;;;4.63;3.70;;;31.00;53.70;;;;;;5114267;28;20107;-84
2021/07/31 06:38:20;;;;;;;6.18;3.38;;;31.00;53.20;;;;;;5114473;28;20106;-83
2021/07/31 06:40:45;;;;;;;6.47;3.38;;;31.00;53.80;;;;;;5114028;28;20126;-84
2021/07/31 06:43:11;;;;;;;5.72;3.45;;;31.00;52.80;;;;;;5114368;28;20039;-83
2021/07/31 06:45:39;;;;;;;6.30;3.28;;;31.00;52.50;;;;;;5114104;28;20044;-83
2021/07/31 06:48:06;;;;;;;11.02;3.53;;;30.80;52.70;;;;;;5113921;28;20480;-85
2021/07/31 06:50:32;;;;;;;6.47;3.75;;;30.80;53.90;;;;;;5113746;28;20512;-85
2021/07/31 06:52:58;;;;;;;7.10;3.70;;;30.80;53.20;;;;;;5114097;28;20082;-84
2021/07/31 06:55:23;;;;;;;6.25;3.72;;;30.80;53.60;;;;;;5113765;28;20503;-86
2021/07/31 06:57:49;;;;;;;11.25;3.38;;;30.70;54.10;;;;;;5112516;28;20036;-84
2021/07/31 07:00:15;;;;;;;4.65;3.55;;;30.80;54.90;;;;;;5113814;28;20047;-83
2021/07/31 07:02:41;;;;;;;6.82;3.40;;;30.80;54.50;;;;;;5113638;28;20403;-85
2021/07/31 07:05:08;;;;;;;6.00;3.60;;;30.80;54.30;;;;;;5113517;28;20074;-82
2021/07/31 07:07:35;;;;;;;4.90;3.20;;;30.80;54.10;;;;;;5113626;28;20446;-93
2021/07/31 07:10:01;;;;;;;7.38;4.00;;;30.70;53.00;;;;;;5114938;28;20023;-95
2021/07/31 07:12:27;;;;;;;5.60;3.55;;;30.60;52.20;;;;;;5097536;28;20167;-96
2021/07/31 07:14:53;;;;;;;6.72;3.30;;;30.50;52.10;;;;;;5096493;28;20031;-96
2021/07/31 07:17:18;;;;;;;13.10;4.78;;;30.30;51.20;;;;;;5096144;28;20028;-92
2021/07/31 07:20:02;;;;;;;5.40;3.30;;;30.10;51.10;;;;;;5115158;28;20088;-95
2021/07/31 07:22:28;;;;;;;6.82;4.03;;;30.00;51.70;;;;;;5095612;28;20023;-84
2021/07/31 07:24:54;;;;;;;7.80;3.70;;;30.00;52.90;;;;;;5078219;28;20039;-88
2021/07/31 07:27:20;;;;;;;7.05;3.42;;;29.90;52.30;;;;;;5113795;28;20079;-92
2021/07/31 07:29:47;;;;;;;4.90;3.10;;;29.80;51.90;;;;;;5095194;28;20032;-92
2021/07/31 07:32:13;;;;;;;6.95;3.67;;;29.80;51.80;;;;;;5095615;28;20046;-91
2021/07/31 07:34:41;;;;;;;6.43;3.38;;;29.90;51.90;;;;;;5113425;28;20112;-89
2021/07/31 07:37:07;;;;;;;5.18;3.00;;;30.00;51.70;;;;;;5095629;28;20165;-94
2021/07/31 07:39:33;;;;;;;5.07;3.17;;;30.10;51.80;;;;;;5078432;28;20043;-93
2021/07/31 07:42:01;;;;;;;6.80;3.40;;;30.20;51.80;;;;;;5080374;28;20377;-92
2021/07/31 07:44:30;;;;;;;4.88;3.45;;;30.30;51.00;;;;;;5095690;28;20051;-95
2021/07/31 07:46:56;;;;;;;7.03;3.03;;;30.20;50.90;;;;;;5080819;28;20063;-94
2021/07/31 07:49:22;;;;;;;4.63;2.80;;;30.30;50.40;;;;;;5099737;28;20118;-88
2021/07/31 07:51:48;;;;;;;5.40;3.17;;;30.20;49.10;;;;;;5112642;28;20502;-89
2021/07/31 07:54:14;;;;;;;6.43;3.38;;;30.20;50.60;;;;;;5093858;28;20040;-86
2021/07/31 07:56:39;;;;;;;8.18;3.42;;;30.20;50.90;;;;;;5111339;28;20070;-83
2021/07/31 07:59:05;;;;;;;5.05;2.97;;;30.10;50.40;;;;;;5094806;28;20031;-83
2021/07/31 08:01:32;;;;;;;5.82;3.38;;;30.00;49.30;;;;;;5112275;28;20040;-84
2021/07/31 08:03:58;;;;;;;5.75;2.60;;;30.00;48.60;;;;;;5094093;28;20103;-85
2021/07/31 08:06:24;;;;;;;3.13;2.33;;;29.90;47.70;;;;;;5113044;28;20051;-85
2021/07/31 08:08:50;;;;;;;6.13;2.40;;;29.80;47.40;;;;;;5112717;28;20027;-83
2021/07/31 08:11:16;;;;;;;4.00;2.58;;;29.80;47.40;;;;;;5112816;28;20431;-85
2021/07/31 08:13:42;;;;;;;2.97;2.40;;;29.70;47.20;;;;;;5112345;28;20050;-83
2021/07/31 08:16:08;;;;;;;6.22;2.97;;;29.60;47.00;;;;;;5112779;28;20042;-82
2021/07/31 08:18:34;;;;;;;6.80;3.10;;;29.60;46.70;;;;;;5112831;28;20040;-80
2021/07/31 08:21:00;;;;;;;5.57;2.72;;;29.60;47.20;;;;;;5112218;28;20047;-80
2021/07/31 08:23:26;;;;;;;6.30;2.75;;;29.60;47.10;;;;;;5094556;28;20471;-80
2021/07/31 08:25:52;;;;;;;4.95;3.03;;;29.40;47.40;;;;;;5112489;28;20407;-81
2021/07/31 08:28:18;;;;;;;5.07;3.00;;;29.40;47.70;;;;;;5112852;28;20080;-83
2021/07/31 08:30:44;;;;;;;5.30;3.15;;;29.40;47.70;;;;;;5112760;28;20483;-82
2021/07/31 08:33:09;;;;;;;4.78;2.90;;;29.30;46.80;;;;;;5129852;28;20034;-84
2021/07/31 08:35:35;;;;;;;4.68;2.72;;;29.30;47.30;;;;;;5133467;28;20036;-82
2021/07/31 08:38:01;;;;;;;8.95;3.03;;;29.30;48.00;;;;;;5133007;28;20065;-81
2021/07/31 08:40:28;;;;;;;5.43;2.50;;;29.20;48.50;;;;;;5092143;28;20442;-82
2021/07/31 08:42:54;;;;;;;3.13;2.50;;;29.10;47.80;;;;;;5092143;28;20568;-82
2021/07/31 08:45:20;;;;;;;5.85;2.55;;;29.10;48.40;;;;;;5074114;28;20127;-82
2021/07/31 08:47:49;;;;;;;5.60;2.95;;;29.00;48.00;;;;;;5092071;28;20044;-81
2021/07/31 08:50:16;;;;;;;4.10;2.80;;;29.00;48.40;;;;;;5092008;28;20088;-84
2021/07/31 08:52:46;;;;;;;6.10;3.30;;;28.90;48.10;;;;;;5077913;28;20028;-81
2021/07/31 08:55:12;;;;;;;4.50;2.70;;;28.80;48.10;;;;;;5102615;28;20043;-81
2021/07/31 08:57:38;;;;;;;8.88;3.03;;;28.80;48.20;;;;;;5097767;28;20122;-79
2021/07/31 09:00:05;;;;;;;6.07;2.83;;;28.70;48.20;;;;;;5116167;28;20519;-81
2021/07/31 09:02:46;;;;;;;7.22;3.17;;;28.70;48.20;;;;;;5115768;28;20538;-81
2021/07/31 09:05:18;;;;;;;4.55;2.60;;;28.80;48.40;;;;;;5116265;28;20520;-82
2021/07/31 09:07:48;;;;;;;9.25;3.00;;;28.80;48.50;;;;;;5116085;28;20505;-82
2021/07/31 09:10:27;;;;;;;3.08;2.80;;;28.80;49.10;;;;;;5115826;28;20547;-82
2021/07/31 09:12:58;;;;;;;5.22;2.90;;;28.80;48.80;;;;;;5116025;28;20031;-83
2021/07/31 09:15:40;;;;;;;8.20;3.00;;;28.70;48.70;;;;;;5097559;28;20031;-84
2021/07/31 09:18:29;;;;;;;4.75;2.65;;;28.70;48.50;;;;;;5115631;28;20039;-83
2021/07/31 09:20:56;;;;;;;3.95;3.15;;;28.60;48.60;;;;;;5115703;28;20475;-84
2021/07/31 09:23:22;;;;;;;4.22;3.08;;;28.60;49.10;;;;;;5115683;28;20070;-80
2021/07/31 09:26:00;;;;;;;5.30;2.65;;;28.60;49.00;;;;;;5115269;28;20062;-80
2021/07/31 09:28:27;;;;;;;7.28;2.75;;;28.60;49.30;;;;;;5115368;28;20027;-81
2021/07/31 09:30:53;;;;;;;5.57;2.60;;;28.60;49.40;;;;;;5115567;28;20373;-80
2021/07/31 09:33:20;;;;;;;4.72;2.40;;;28.50;49.10;;;;;;5120670;27;20042;-81
2021/07/31 09:36:00;;;;;;;8.05;2.60;;;28.40;48.60;;;;;;5135769;27;20039;-80
2021/07/31 09:38:44;;;;;;;4.18;2.70;;;28.30;48.50;;;;;;5117691;27;20134;-82
2021/07/31 09:41:24;;;;;;;5.78;2.40;;;28.30;48.20;;;;;;5095707;28;20484;-81
2021/07/31 09:44:02;;;;;;;9.65;2.75;;;28.30;48.10;;;;;;5095844;28;20080;-82
2021/07/31 09:46:33;;;;;;;5.03;2.83;;;28.30;47.80;;;;;;5116833;27;20066;-83
2021/07/31 09:49:01;;;;;;;6.22;2.30;;;28.20;47.90;;;;;;5076568;28;20130;-80
2021/07/31 09:51:38;;;;;;;6.28;2.72;;;28.30;48.60;;;;;;5093611;28;20483;-80
2021/07/31 09:54:07;;;;;;;4.93;2.78;;;28.20;48.50;;;;;;5095315;28;20115;-81
2021/07/31 09:56:54;;;;;;;3.97;2.83;;;28.20;48.70;;;;;;5120023;27;20023;-81
2021/07/31 09:59:22;;;;;;;9.00;3.05;;;28.20;49.00;;;;;;5114673;28;20053;-81
2021/07/31 10:01:57;;;;;;;3.83;2.85;;;28.20;48.90;;;;;;5114189;28;20463;-80
2021/07/31 10:04:23;;;;;;;5.70;3.13;;;28.20;49.30;;;;;;5123859;27;20118;-81
2021/07/31 10:06:50;;;;;;;3.95;2.80;;;28.20;49.20;;;;;;5135395;27;20046;-80
2021/07/31 10:09:16;;;;;;;4.22;2.50;;;28.20;49.20;;;;;;5116757;27;20483;-80
2021/07/31 10:11:44;;;;;;;4.38;3.00;;;28.20;49.20;;;;;;5135249;27;20035;-82
2021/07/31 10:14:11;;;;;;;2.83;2.42;;;28.20;49.10;;;;;;5134940;27;20039;-81
2021/07/31 10:16:46;;;;;;;7.60;2.85;;;28.10;49.10;;;;;;5128240;27;20027;-81
2021/07/31 10:19:13;;;;;;;4.40;2.67;;;28.10;49.10;;;;;;5134817;27;20034;-80
2021/07/31 10:21:58;;;;;;;9.38;3.20;;;28.10;49.20;;;;;;5132625;27;20031;-82
2021/07/31 10:24:25;;;;;;;4.60;3.10;;;28.00;49.30;;;;;;5135302;27;20502;-79
2021/07/31 10:27:15;;;;;;;8.23;2.92;;;28.00;49.30;;;;;;5134757;27;20501;-80
2021/07/31 10:29:46;;;;;;;4.18;3.00;;;27.90;48.80;;;;;;5135052;27;20066;-81
2021/07/31 10:32:21;;;;;;;5.13;2.80;;;28.00;49.00;;;;;;5134972;27;20039;-80
2021/07/31 10:35:18;;;;;;;4.75;2.80;;;28.00;49.10;;;;;;5135024;27;20522;-82
2021/07/31 10:37:46;;;;;;;4.97;2.50;;;28.00;48.90;;;;;;5123528;27;20031;-80
2021/07/31 10:40:40;;;;;;;4.50;2.58;;;27.90;48.10;;;;;;5134626;27;20084;-80
2021/07/31 10:43:11;;;;;;;3.13;2.70;;;27.90;48.10;;;;;;5134303;27;20042;-80
2021/07/31 10:45:37;;;;;;;4.18;2.80;;;27.90;48.20;;;;;;5134463;27;20035;-80
2021/07/31 10:48:22;;;;;;;8.68;3.55;;;27.90;48.30;;;;;;5126177;27;20488;-81
2021/07/31 10:50:48;;;;;;;4.57;2.60;;;27.90;48.60;;;;;;5113752;28;20068;-80
2021/07/31 10:53:14;;;;;;;4.60;3.05;;;27.90;48.90;;;;;;5113734;28;20117;-80
2021/07/31 10:55:43;;;;;;;5.97;2.70;;;27.90;49.20;;;;;;5093601;28;20046;-81
2021/07/31 10:58:09;;;;;;;6.45;2.78;;;27.80;49.20;;;;;;5102156;27;20043;-81
2021/07/31 11:00:53;;;;;;;5.32;2.72;;;27.80;49.20;;;;;;5134592;27;20050;-81
2021/07/31 11:03:22;;;;;;;3.33;2.63;;;27.90;49.30;;;;;;5134482;27;20058;-81
2021/07/31 11:06:05;;;;;;;2.92;2.50;;;27.90;49.50;;;;;;5130375;27;20044;-81
2021/07/31 11:08:52;;;;;;;7.82;2.55;;;27.90;49.50;;;;;;5113612;28;20040;-82
2021/07/31 11:11:18;;;;;;;5.75;2.78;;;27.90;49.20;;;;;;5094819;28;20450;-81
2021/07/31 11:13:44;;;;;;;3.33;2.65;;;27.90;48.50;;;;;;5112575;28;20084;-80
2021/07/31 11:16:19;;;;;;;6.03;2.50;;;27.90;48.20;;;;;;5112717;28;20043;-80
2021/07/31 11:18:50;;;;;;;3.58;2.67;;;28.00;48.30;;;;;;5111962;28;20433;-82
2021/07/31 11:21:24;;;;;;;4.65;2.30;;;28.00;48.60;;;;;;5113362;28;20506;-81
2021/07/31 11:23:57;;;;;;;5.82;3.00;;;28.00;48.60;;;;;;5112274;28;20417;-81
2021/07/31 11:26:45;;;;;;;5.05;2.75;;;27.90;48.50;;;;;;5093074;28;20044;-80
2021/07/31 11:29:22;;;;;;;6.22;3.03;;;28.00;48.90;;;;;;5100271;28;20062;-80
2021/07/31 11:32:03;;;;;;;5.38;3.00;;;28.00;48.70;;;;;;5113119;28;20035;-81
2021/07/31 11:34:40;;;;;;;6.90;3.10;;;28.00;48.70;;;;;;5095029;28;20457;-80
2021/07/31 11:37:09;;;;;;;6.35;2.80;;;28.00;48.20;;;;;;5112835;28;20032;-81
2021/07/31 11:39:36;;;;;;;5.03;2.53;;;28.00;47.80;;;;;;5113710;28;20040;-84
2021/07/31 11:42:03;;;;;;;5.18;2.47;;;27.90;47.70;;;;;;5113234;28;20120;-80
2021/07/31 11:44:35;;;;;;;6.00;2.45;;;27.90;47.60;;;;;;5113219;28;20039;-78
2021/07/31 11:47:01;;;;;;;6.07;2.53;;;27.90;47.50;;;;;;5094725;28;20043;-80
2021/07/31 11:49:35;;;;;;;5.85;2.35;;;27.90;47.70;;;;;;5113166;28;20028;-78
2021/07/31 11:52:09;;;;;;;6.72;2.47;;;27.90;47.10;;;;;;5113006;28;20040;-79
2021/07/31 11:54:42;;;;;;;2.90;1.90;;;27.90;47.40;;;;;;5095161;28;20031;-79
2021/07/31 11:57:09;;;;;;;7.78;2.50;;;27.90;47.30;;;;;;5113173;28;20507;-79
2021/07/31 11:59:37;;;;;;;6.35;2.55;;;27.90;47.30;;;;;;5112098;28;20088;-80
2021/07/31 12:02:04;;;;;;;5.80;2.50;;;27.90;47.60;;;;;;5116768;28;20142;-80
2021/07/31 12:04:47;;;;;;;5.22;2.50;;;27.90;47.30;;;;;;5112901;28;20050;-82
2021/07/31 12:07:16;;;;;;;8.05;2.72;;;27.90;47.20;;;;;;5095142;28;20051;-84
2021/07/31 12:09:56;;;;;;;7.72;2.42;;;27.90;47.00;;;;;;5112688;28;20062;-80
2021/07/31 12:12:30;;;;;;;4.85;2.40;;;27.90;47.10;;;;;;5111044;28;20122;-81
2021/07/31 12:15:26;;;;;;;5.80;2.20;;;27.90;47.10;;;;;;5112628;28;20036;-81
2021/07/31 12:17:55;;;;;;;4.18;2.60;;;27.90;46.80;;;;;;5110985;28;20118;-80
2021/07/31 12:20:35;;;;;;;2.65;2.38;;;28.00;47.00;;;;;;5111322;28;20434;-80
2021/07/31 12:23:03;;;;;;;5.97;2.67;;;27.90;47.00;;;;;;5112557;28;20074;-82
2021/07/31 12:25:29;;;;;;;3.03;2.15;;;27.90;47.10;;;;;;5093971;28;20039;-80
2021/07/31 12:28:09;;;;;;;3.42;2.20;;;27.90;46.90;;;;;;5115949;28;20046;-84
2021/07/31 12:30:36;;;;;;;5.28;2.38;;;27.90;47.50;;;;;;5115766;28;20034;-82
2021/07/31 12:33:05;;;;;;;6.45;2.50;;;28.00;47.50;;;;;;5115323;28;20050;-82
2021/07/31 12:35:44;;;;;;;4.32;2.50;;;28.00;47.70;;;;;;5116634;28;20081;-82
2021/07/31 12:38:19;;;;;;;8.13;3.22;;;28.00;47.60;;;;;;5115511;28;20126;-83
2021/07/31 12:40:46;;;;;;;4.43;2.43;;;28.00;47.60;;;;;;5116722;28;20114;-81
2021/07/31 12:43:13;;;;;;;4.00;2.88;;;27.90;47.40;;;;;;5115410;28;20035;-80
2021/07/31 12:45:44;;;;;;;3.58;2.65;;;27.90;47.40;;;;;;5116424;28;20411;-81
2021/07/31 12:48:14;;;;;;;3.88;2.88;;;27.90;48.10;;;;;;5115917;28;20041;-81
2021/07/31 12:50:44;;;;;;;3.00;2.30;;;27.90;48.10;;;;;;5116346;28;20074;-81
2021/07/31 12:53:11;;;;;;;4.10;2.05;;;27.90;47.40;;;;;;5097913;28;20059;-81
2021/07/31 12:55:37;;;;;;;8.32;2.92;;;27.90;47.40;;;;;;5116688;28;20040;-79
2021/07/31 12:58:04;;;;;;;3.85;2.53;;;27.90;47.70;;;;;;5115965;28;20070;-79